Latest Coastal Weather Observations for Sydney Harbour

IDN60701

Issued at 7:45 pm EST Wednesday 23 April 2014 (issued every 10 minutes, with the page automatically refreshed every 10 minutes)

About coastal observations | Map of coastal stations | Coastal observations for NSW | Marine services | Other Formats
Station Details ID: 066196 Name: WEDDING CAKE WEST Lat: -33.84 Lon: 151.26 Height: 6.0 m
Data from the previous 72 hours. | See also: Recent months for locations in New South Wales
Date/Time
EST
Temp

°C
Wind Pressure Rain
since 9am
mm
Weather Cloud Vis
km
Sea
Height
m
Swell
Dir
 
Speed
knots
Gust
knots
hPa Trend Height
m
Period
s
Dir
23/07:30pm 20.5 N 5 6 - - - - - - - - - -
23/07:00pm 21.1 N 5 6 - - - - - - - - - -
23/06:30pm 20.8 N 6 7 - - - - - - - - - -
23/06:00pm 21.4 NNE 6 7 - - - - - - - - - -
23/05:30pm 21.6 NNE 7 7 - - - - - - - - - -
23/05:00pm 21.9 ENE 6 7 - - - - - - - - - -
23/04:30pm 22.3 E 6 7 - - - - - - - - - -
23/04:00pm 23.3 ESE 8 9 - - - - - - - - - -
23/03:30pm 23.4 ESE 8 9 - - - - - - - - - -
23/03:00pm 23.5 E 7 9 - - - - - - - - - -
23/02:30pm 23.9 E 6 7 - - - - - - - - - -
23/02:00pm 24.5 CALM 0 0 - - - - - - - - - -
23/01:30pm 23.1 WSW 3 4 - - - - - - - - - -
23/01:00pm 23.4 CALM 0 0 - - - - - - - - - -
23/12:30pm 21.8 W 5 7 - - - - - - - - - -
23/12:00pm 21.2 W 4 6 - - - - - - - - - -
23/11:30am 20.5 SW 8 10 - - - - - - - - - -
23/11:00am 19.9 SW 8 11 - - - - - - - - - -
23/10:30am 19.7 WSW 7 10 - - - - - - - - - -
23/10:00am 18.7 SW 7 9 - - - - - - - - - -
23/09:30am 18.3 WSW 7 9 - - - - - - - - - -
23/09:00am 17.8 W 13 16 - - - - - - - - - -
23/08:30am 17.8 W 9 13 - - - - - - - - - -
23/08:00am 17.2 WSW 7 10 - - - - - - - - - -
23/07:30am 16.4 W 7 9 - - - - - - - - - -
23/07:00am 16.0 W 10 14 - - - - - - - - - -
23/06:30am 15.7 SSW 5 6 - - - - - - - - - -
23/06:00am 15.9 SW 5 7 - - - - - - - - - -
23/05:30am 16.2 WSW 4 5 - - - - - - - - - -
23/05:00am 16.8 WSW 7 8 - - - - - - - - - -
23/04:30am 17.5 W 4 7 - - - - - - - - - -
23/04:00am 17.5 WSW 8 9 - - - - - - - - - -
23/03:30am 17.3 W 7 8 - - - - - - - - - -
23/03:00am 17.4 W 6 7 - - - - - - - - - -
23/02:30am 17.7 W 6 7 - - - - - - - - - -
23/02:00am 18.4 W 6 9 - - - - - - - - - -
23/01:30am 18.7 W 9 11 - - - - - - - - - -
23/01:00am 19.2 W 8 11 - - - - - - - - - -
23/12:30am 19.2 W 10 11 - - - - - - - - - -
23/12:00am 19.4 W 8 10 - - - - - - - - - -
 
Date/Time
EST
Temp

°C
Wind Pressure Rain
since 9am
mm
Weather Cloud Vis
km
Sea
Height
m
Swell
Dir
 
Speed
knots
Gust
knots
hPa Trend Height
m
Period
s
Dir
22/11:30pm 19.7 WSW 7 8 - - - - - - - - - -
22/11:00pm 20.0 WSW 7 8 - - - - - - - - - -
22/10:30pm 20.1 WSW 6 7 - - - - - - - - - -
22/10:00pm 20.6 W 6 8 - - - - - - - - - -
22/09:30pm 21.4 W 11 13 - - - - - - - - - -
22/09:00pm 21.7 WNW 9 11 - - - - - - - - - -
22/08:30pm 22.2 WNW 13 16 - - - - - - - - - -
22/08:00pm 21.8 NW 11 13 - - - - - - - - - -
22/07:30pm 21.8 NNW 10 14 - - - - - - - - - -
22/07:00pm 21.5 W 3 7 - - - - - - - - - -
22/06:30pm 20.7 CALM 0 0 - - - - - - - - - -
22/06:00pm 20.2 CALM 0 0 - - - - - - - - - -
22/05:30pm 20.8 CALM 0 0 - - - - - - - - - -
22/05:00pm 21.5 CALM 0 0 - - - - - - - - - -
22/04:30pm 22.3 WSW 2 3 - - - - - - - - - -
22/04:00pm 22.6 WSW 3 4 - - - - - - - - - -
22/03:30pm 22.8 CALM 0 2 - - - - - - - - - -
22/03:00pm 22.9 WSW 4 6 - - - - - - - - - -
22/02:30pm 22.6 SW 5 7 - - - - - - - - - -
22/02:00pm 22.4 SW 5 7 - - - - - - - - - -
22/01:30pm 21.7 SW 4 5 - - - - - - - - - -
22/01:00pm 21.5 WSW 7 9 - - - - - - - - - -
22/12:30pm 19.9 WSW 10 11 - - - - - - - - - -
22/12:00pm 19.4 SW 8 11 - - - - - - - - - -
22/11:30am 18.8 WSW 7 8 - - - - - - - - - -
22/11:00am 18.0 S 5 6 - - - - - - - - - -
22/10:30am 17.5 SSW 6 7 - - - - - - - - - -
22/10:00am 16.7 SW 7 8 - - - - - - - - - -
22/09:30am 16.8 SW 7 8 - - - - - - - - - -
22/09:00am 15.9 SW 8 9 - - - - - - - - - -
22/08:30am 15.6 SW 7 9 - - - - - - - - - -
22/08:00am 15.5 SSW 5 6 - - - - - - - - - -
22/07:30am 14.7 WSW 5 8 - - - - - - - - - -
22/07:00am 14.4 SW 7 8 - - - - - - - - - -
22/06:30am 14.6 W 5 7 - - - - - - - - - -
22/06:00am 14.9 WSW 5 8 - - - - - - - - - -
22/05:30am 15.1 WSW 5 6 - - - - - - - - - -
22/05:00am 15.0 SW 4 5 - - - - - - - - - -
22/04:30am 15.4 SW 3 4 - - - - - - - - - -
22/04:00am 15.4 WSW 4 5 - - - - - - - - - -
22/03:30am 15.9 WSW 3 5 - - - - - - - - - -
22/03:00am 16.3 SW 4 6 - - - - - - - - - -
22/02:30am 16.7 WSW 3 4 - - - - - - - - - -
22/02:00am 17.0 CALM 0 0 - - - - - - - - - -
22/01:30am 17.3 WSW 5 7 - - - - - - - - - -
22/01:00am 17.6 WNW 1 4 - - - - - - - - - -
22/12:30am 17.8 SW 5 7 - - - - - - - - - -
22/12:00am 18.1 WSW 5 6 - - - - - - - - - -
 
Date/Time
EST
Temp

°C
Wind Pressure Rain
since 9am
mm
Weather Cloud Vis
km
Sea
Height
m
Swell
Dir
 
Speed
knots
Gust
knots
hPa Trend Height
m
Period
s
Dir
21/11:30pm 18.3 WSW 4 5 - - - - - - - - - -
21/11:00pm 18.7 W 5 7 - - - - - - - - - -
21/10:30pm 18.3 SSE 4 4 - - - - - - - - - -
21/10:00pm 19.0 WNW 5 7 - - - - - - - - - -
21/09:30pm 18.6 CALM 0 0 - - - - - - - - - -
21/09:00pm 18.6 CALM 0 0 - - - - - - - - - -
21/08:30pm 19.0 CALM 0 0 - - - - - - - - - -
21/08:00pm 19.4 SE 3 4 - - - - - - - - - -
21/07:30pm 19.6 SE 4 5 - - - - - - - - - -
21/07:00pm 19.5 SE 4 5 - - - - - - - - - -
21/06:30pm 19.9 CALM 0 0 - - - - - - - - - -
21/06:00pm 19.2 SE 2 4 - - - - - - - - - -
21/05:30pm 20.1 SE 3 5 - - - - - - - - - -
21/05:00pm 20.6 SE 5 5 - - - - - - - - - -
21/04:30pm 20.7 ESE 6 7 - - - - - - - - - -
21/04:00pm 21.7 E 6 7 - - - - - - - - - -
21/03:30pm 21.9 E 6 7 - - - - - - - - - -
21/03:00pm 22.3 E 7 8 - - - - - - - - - -
21/02:30pm 24.4 CALM 0 0 - - - - - - - - - -
21/02:00pm 22.0 CALM 0 0 - - - - - - - - - -
21/01:30pm 22.6 SSW 3 4 - - - - - - - - - -
21/01:00pm 20.3 SW 7 7 - - - - - - - - - -
21/12:30pm 19.9 SW 7 9 - - - - - - - - - -
21/12:00pm 19.5 WSW 8 10 - - - - - - - - - -
21/11:30am 18.8 WSW 7 9 - - - - - - - - - -
21/11:00am 18.3 WSW 8 11 - - - - - - - - - -
21/10:30am 17.3 W 10 13 - - - - - - - - - -
21/10:00am 16.6 W 12 15 - - - - - - - - - -
21/09:30am 16.1 W 10 13 - - - - - - - - - -
21/09:00am 15.7 W 13 16 - - - - - - - - - -
21/08:30am 15.3 W 14 17 - - - - - - - - - -
21/08:00am 15.1 W 13 16 - - - - - - - - - -
21/07:30am 14.7 W 13 16 - - - - - - - - - -
21/07:00am 14.9 W 14 17 - - - - - - - - - -
21/06:30am 15.0 WSW 13 16 - - - - - - - - - -
21/06:00am 15.0 W 16 21 - - - - - - - - - -
21/05:30am 15.1 W 15 18 - - - - - - - - - -
21/05:00am 15.2 W 13 16 - - - - - - - - - -
21/04:30am 15.4 W 13 16 - - - - - - - - - -
21/04:00am 15.5 WSW 10 14 - - - - - - - - - -
21/03:30am 15.8 WSW 10 12 - - - - - - - - - -
21/03:00am 16.0 W 10 13 - - - - - - - - - -
21/02:30am 16.4 WSW 11 14 - - - - - - - - - -
21/02:00am 16.7 WSW 13 17 - - - - - - - - - -
21/01:30am 16.8 WSW 14 18 - - - - - - - - - -
21/01:00am 17.2 WSW 13 16 - - - - - - - - - -
21/12:30am 17.5 WSW 15 19 - - - - - - - - - -
21/12:00am 17.9 WSW 13 16 - - - - - - - - - -
 
Date/Time
EST
Temp

°C
Wind Pressure Rain
since 9am
mm
Weather Cloud Vis
km
Sea
Height
m
Swell
Dir
 
Speed
knots
Gust
knots
hPa Trend Height
m
Period
s
Dir
20/11:30pm 17.8 WSW 10 15 - - - - - - - - - -
20/11:00pm 18.5 W 9 10 - - - - - - - - - -
20/10:30pm 19.2 N 6 11 - - - - - - - - - -
20/10:00pm 20.0 N 5 6 - - - - - - - - - -
20/09:30pm 20.1 N 4 5 - - - - - - - - - -
20/09:00pm 20.4 N 4 5 - - - - - - - - - -
20/08:30pm 20.2 N 4 5 - - - - - - - - - -
20/08:00pm 20.5 N 5 6 - - - - - - - - - -

Other Formats:

Comma delimited format used in spreadsheet applications
http://www.bom.gov.au/fwo/IDN60701/IDN60701.95766.axf

JavaScript Object Notation format (JSON) in row-major order
http://www.bom.gov.au/fwo/IDN60701/IDN60701.95766.json